sensor_id;sensor_type;location;lat;lon;timestamp;temperature;humidity
75683;HTU21D;64295;44.772;39.872;2024-01-07T00:01:24;5.40;67.24
75683;HTU21D;64295;44.772;39.872;2024-01-07T00:03:51;5.38;67.23
75683;HTU21D;64295;44.772;39.872;2024-01-07T00:06:17;5.35;67.30
75683;HTU21D;64295;44.772;39.872;2024-01-07T00:08:43;5.33;67.29
75683;HTU21D;64295;44.772;39.872;2024-01-07T00:11:09;5.32;67.32
75683;HTU21D;64295;44.772;39.872;2024-01-07T00:13:36;5.36;67.25
75683;HTU21D;64295;44.772;39.872;2024-01-07T00:16:01;5.38;67.12
75683;HTU21D;64295;44.772;39.872;2024-01-07T00:18:27;5.35;67.14
75683;HTU21D;64295;44.772;39.872;2024-01-07T00:20:53;5.31;67.20
75683;HTU21D;64295;44.772;39.872;2024-01-07T00:23:19;5.30;67.23
75683;HTU21D;64295;44.772;39.872;2024-01-07T00:25:49;5.25;67.23
75683;HTU21D;64295;44.772;39.872;2024-01-07T00:28:15;5.20;67.37
75683;HTU21D;64295;44.772;39.872;2024-01-07T00:30:41;5.19;67.40
75683;HTU21D;64295;44.772;39.872;2024-01-07T00:33:07;5.21;67.31
75683;HTU21D;64295;44.772;39.872;2024-01-07T00:35:33;5.25;67.26
75683;HTU21D;64295;44.772;39.872;2024-01-07T00:37:59;5.30;67.12
75683;HTU21D;64295;44.772;39.872;2024-01-07T00:40:25;5.31;67.10
75683;HTU21D;64295;44.772;39.872;2024-01-07T00:42:52;5.31;67.09
75683;HTU21D;64295;44.772;39.872;2024-01-07T00:45:18;5.36;67.07
75683;HTU21D;64295;44.772;39.872;2024-01-07T00:47:44;5.38;67.00
75683;HTU21D;64295;44.772;39.872;2024-01-07T00:50:10;5.43;66.89
75683;HTU21D;64295;44.772;39.872;2024-01-07T00:52:36;5.40;66.91
75683;HTU21D;64295;44.772;39.872;2024-01-07T00:55:08;5.40;66.98
75683;HTU21D;64295;44.772;39.872;2024-01-07T00:57:34;5.43;66.91
75683;HTU21D;64295;44.772;39.872;2024-01-07T01:00:04;5.39;66.94
75683;HTU21D;64295;44.772;39.872;2024-01-07T01:02:30;5.36;67.01
75683;HTU21D;64295;44.772;39.872;2024-01-07T01:04:56;5.35;67.07
75683;HTU21D;64295;44.772;39.872;2024-01-07T01:07:22;5.33;67.07
75683;HTU21D;64295;44.772;39.872;2024-01-07T01:09:48;5.32;67.10
75683;HTU21D;64295;44.772;39.872;2024-01-07T01:12:14;5.28;67.14
75683;HTU21D;64295;44.772;39.872;2024-01-07T01:14:40;5.27;67.16
75683;HTU21D;64295;44.772;39.872;2024-01-07T01:17:06;5.27;67.14
75683;HTU21D;64295;44.772;39.872;2024-01-07T01:19:32;5.25;67.16
75683;HTU21D;64295;44.772;39.872;2024-01-07T01:21:58;5.21;67.20
75683;HTU21D;64295;44.772;39.872;2024-01-07T01:24:24;5.17;67.30
75683;HTU21D;64295;44.772;39.872;2024-01-07T01:26:50;5.15;67.33
75683;HTU21D;64295;44.772;39.872;2024-01-07T01:29:16;5.15;67.30
75683;HTU21D;64295;44.772;39.872;2024-01-07T01:31:42;5.18;67.20
75683;HTU21D;64295;44.772;39.872;2024-01-07T01:34:08;5.21;67.14
75683;HTU21D;64295;44.772;39.872;2024-01-07T01:36:34;5.22;67.11
75683;HTU21D;64295;44.772;39.872;2024-01-07T01:39:00;5.23;67.10
75683;HTU21D;64295;44.772;39.872;2024-01-07T01:41:26;5.25;67.07
75683;HTU21D;64295;44.772;39.872;2024-01-07T01:43:57;5.24;67.01
75683;HTU21D;64295;44.772;39.872;2024-01-07T01:46:23;5.17;67.10
75683;HTU21D;64295;44.772;39.872;2024-01-07T01:48:49;5.13;67.19
75683;HTU21D;64295;44.772;39.872;2024-01-07T01:51:15;5.07;67.29
75683;HTU21D;64295;44.772;39.872;2024-01-07T01:53:42;5.05;67.35
75683;HTU21D;64295;44.772;39.872;2024-01-07T01:56:08;5.04;67.35
75683;HTU21D;64295;44.772;39.872;2024-01-07T01:58:34;5.05;67.36
75683;HTU21D;64295;44.772;39.872;2024-01-07T02:01:00;5.05;67.31
75683;HTU21D;64295;44.772;39.872;2024-01-07T02:03:26;5.03;67.29
75683;HTU21D;64295;44.772;39.872;2024-01-07T02:05:52;5.03;67.32
75683;HTU21D;64295;44.772;39.872;2024-01-07T02:08:19;5.05;67.25
75683;HTU21D;64295;44.772;39.872;2024-01-07T02:10:45;5.05;67.27
75683;HTU21D;64295;44.772;39.872;2024-01-07T02:13:11;5.07;67.19
75683;HTU21D;64295;44.772;39.872;2024-01-07T02:15:37;5.08;67.17
75683;HTU21D;64295;44.772;39.872;2024-01-07T02:18:03;5.07;67.14
75683;HTU21D;64295;44.772;39.872;2024-01-07T02:20:32;5.05;67.16
75683;HTU21D;64295;44.772;39.872;2024-01-07T02:22:58;5.00;67.23
75683;HTU21D;64295;44.772;39.872;2024-01-07T02:25:24;4.94;67.34
75683;HTU21D;64295;44.772;39.872;2024-01-07T02:27:50;4.91;67.39
75683;HTU21D;64295;44.772;39.872;2024-01-07T02:30:17;4.89;67.44
75683;HTU21D;64295;44.772;39.872;2024-01-07T02:32:43;4.89;67.40
75683;HTU21D;64295;44.772;39.872;2024-01-07T02:35:09;4.90;67.39
75683;HTU21D;64295;44.772;39.872;2024-01-07T02:37:35;4.91;67.33
75683;HTU21D;64295;44.772;39.872;2024-01-07T02:40:01;4.90;67.29
75683;HTU21D;64295;44.772;39.872;2024-01-07T02:42:27;4.87;67.33
75683;HTU21D;64295;44.772;39.872;2024-01-07T02:44:53;4.87;67.34
75683;HTU21D;64295;44.772;39.872;2024-01-07T02:47:19;4.82;67.33
75683;HTU21D;64295;44.772;39.872;2024-01-07T02:49:45;4.79;67.38
75683;HTU21D;64295;44.772;39.872;2024-01-07T02:52:11;4.78;67.37
75683;HTU21D;64295;44.772;39.872;2024-01-07T02:54:37;4.77;67.39
75683;HTU21D;64295;44.772;39.872;2024-01-07T02:57:03;4.78;67.39
75683;HTU21D;64295;44.772;39.872;2024-01-07T02:59:29;4.79;67.31
75683;HTU21D;64295;44.772;39.872;2024-01-07T03:01:55;4.76;67.35
75683;HTU21D;64295;44.772;39.872;2024-01-07T03:04:20;4.73;67.38
75683;HTU21D;64295;44.772;39.872;2024-01-07T03:06:46;4.69;67.46
75683;HTU21D;64295;44.772;39.872;2024-01-07T03:09:12;4.69;67.49
75683;HTU21D;64295;44.772;39.872;2024-01-07T03:11:41;4.72;67.43
75683;HTU21D;64295;44.772;39.872;2024-01-07T03:14:07;4.75;67.39
75683;HTU21D;64295;44.772;39.872;2024-01-07T03:16:33;4.76;67.33
75683;HTU21D;64295;44.772;39.872;2024-01-07T03:18:59;4.82;67.27
75683;HTU21D;64295;44.772;39.872;2024-01-07T03:21:25;4.86;67.14
75683;HTU21D;64295;44.772;39.872;2024-01-07T03:23:51;4.90;67.12
75683;HTU21D;64295;44.772;39.872;2024-01-07T03:26:19;4.91;67.07
75683;HTU21D;64295;44.772;39.872;2024-01-07T03:28:45;4.92;67.09
75683;HTU21D;64295;44.772;39.872;2024-01-07T03:31:12;4.93;67.07
75683;HTU21D;64295;44.772;39.872;2024-01-07T03:33:39;4.93;67.11
75683;HTU21D;64295;44.772;39.872;2024-01-07T03:36:13;4.93;67.10
75683;HTU21D;64295;44.772;39.872;2024-01-07T03:38:40;4.96;67.02
75683;HTU21D;64295;44.772;39.872;2024-01-07T03:41:07;4.97;66.98
75683;HTU21D;64295;44.772;39.872;2024-01-07T03:43:33;4.94;66.99
75683;HTU21D;64295;44.772;39.872;2024-01-07T03:45:59;4.93;67.07
75683;HTU21D;64295;44.772;39.872;2024-01-07T03:48:26;4.94;67.07
75683;HTU21D;64295;44.772;39.872;2024-01-07T03:50:52;4.94;67.05
75683;HTU21D;64295;44.772;39.872;2024-01-07T03:53:18;4.92;67.07
75683;HTU21D;64295;44.772;39.872;2024-01-07T03:55:44;4.91;67.10
75683;HTU21D;64295;44.772;39.872;2024-01-07T03:58:10;4.92;67.07
75683;HTU21D;64295;44.772;39.872;2024-01-07T04:00:36;4.96;67.04
75683;HTU21D;64295;44.772;39.872;2024-01-07T04:03:02;5.00;66.98
75683;HTU21D;64295;44.772;39.872;2024-01-07T04:05:28;5.00;66.97
75683;HTU21D;64295;44.772;39.872;2024-01-07T04:07:55;4.98;66.99
75683;HTU21D;64295;44.772;39.872;2024-01-07T04:10:20;4.97;66.98
75683;HTU21D;64295;44.772;39.872;2024-01-07T04:12:46;4.96;67.00
75683;HTU21D;64295;44.772;39.872;2024-01-07T04:15:13;4.94;67.08
75683;HTU21D;64295;44.772;39.872;2024-01-07T04:17:38;4.96;67.06
75683;HTU21D;64295;44.772;39.872;2024-01-07T04:20:06;4.93;67.08
75683;HTU21D;64295;44.772;39.872;2024-01-07T04:22:32;4.94;67.15
75683;HTU21D;64295;44.772;39.872;2024-01-07T04:24:58;4.97;67.11
75683;HTU21D;64295;44.772;39.872;2024-01-07T04:27:24;5.01;67.04
75683;HTU21D;64295;44.772;39.872;2024-01-07T04:29:52;5.03;66.99
75683;HTU21D;64295;44.772;39.872;2024-01-07T04:32:18;5.00;67.04
75683;HTU21D;64295;44.772;39.872;2024-01-07T04:34:45;5.00;67.01
75683;HTU21D;64295;44.772;39.872;2024-01-07T04:37:11;4.95;67.06
75683;HTU21D;64295;44.772;39.872;2024-01-07T04:39:36;4.91;67.14
75683;HTU21D;64295;44.772;39.872;2024-01-07T04:42:02;4.88;67.20
75683;HTU21D;64295;44.772;39.872;2024-01-07T04:44:28;4.87;67.26
75683;HTU21D;64295;44.772;39.872;2024-01-07T04:46:54;4.87;67.29
75683;HTU21D;64295;44.772;39.872;2024-01-07T04:49:20;4.90;67.24
75683;HTU21D;64295;44.772;39.872;2024-01-07T04:51:46;4.90;67.22
75683;HTU21D;64295;44.772;39.872;2024-01-07T04:54:12;4.87;67.23
75683;HTU21D;64295;44.772;39.872;2024-01-07T04:56:38;4.86;67.28
75683;HTU21D;64295;44.772;39.872;2024-01-07T04:59:04;4.82;67.33
75683;HTU21D;64295;44.772;39.872;2024-01-07T05:01:32;4.82;67.31
75683;HTU21D;64295;44.772;39.872;2024-01-07T05:03:58;4.80;67.33
75683;HTU21D;64295;44.772;39.872;2024-01-07T05:06:24;4.80;67.34
75683;HTU21D;64295;44.772;39.872;2024-01-07T05:08:50;4.79;67.32
75683;HTU21D;64295;44.772;39.872;2024-01-07T05:11:16;4.83;67.33
75683;HTU21D;64295;44.772;39.872;2024-01-07T05:13:42;4.86;67.24
75683;HTU21D;64295;44.772;39.872;2024-01-07T05:16:08;4.89;67.17
75683;HTU21D;64295;44.772;39.872;2024-01-07T05:18:34;4.89;67.17
75683;HTU21D;64295;44.772;39.872;2024-01-07T05:21:00;4.91;67.11
75683;HTU21D;64295;44.772;39.872;2024-01-07T05:23:26;4.88;67.19
75683;HTU21D;64295;44.772;39.872;2024-01-07T05:25:52;4.88;67.17
75683;HTU21D;64295;44.772;39.872;2024-01-07T05:28:18;4.88;67.18
75683;HTU21D;64295;44.772;39.872;2024-01-07T05:30:45;4.87;67.24
75683;HTU21D;64295;44.772;39.872;2024-01-07T05:33:11;4.89;67.17
75683;HTU21D;64295;44.772;39.872;2024-01-07T05:35:37;4.94;67.10
75683;HTU21D;64295;44.772;39.872;2024-01-07T05:38:03;4.96;67.03
75683;HTU21D;64295;44.772;39.872;2024-01-07T05:40:29;4.95;67.04
75683;HTU21D;64295;44.772;39.872;2024-01-07T05:42:55;5.00;67.01
75683;HTU21D;64295;44.772;39.872;2024-01-07T05:45:21;5.05;66.91
75683;HTU21D;64295;44.772;39.872;2024-01-07T05:47:47;5.05;66.85
75683;HTU21D;64295;44.772;39.872;2024-01-07T05:50:13;5.04;66.92
75683;HTU21D;64295;44.772;39.872;2024-01-07T05:52:42;5.06;66.98
75683;HTU21D;64295;44.772;39.872;2024-01-07T05:55:08;5.07;66.90
75683;HTU21D;64295;44.772;39.872;2024-01-07T05:57:34;5.08;66.91
75683;HTU21D;64295;44.772;39.872;2024-01-07T06:00:01;5.09;66.85
75683;HTU21D;64295;44.772;39.872;2024-01-07T06:02:27;5.08;66.88
75683;HTU21D;64295;44.772;39.872;2024-01-07T06:04:53;5.10;66.93
75683;HTU21D;64295;44.772;39.872;2024-01-07T06:07:19;5.20;66.78
75683;HTU21D;64295;44.772;39.872;2024-01-07T06:09:44;5.28;66.61
75683;HTU21D;64295;44.772;39.872;2024-01-07T06:12:10;5.36;66.51
75683;HTU21D;64295;44.772;39.872;2024-01-07T06:14:36;5.45;66.39
75683;HTU21D;64295;44.772;39.872;2024-01-07T06:17:02;5.51;66.31
75683;HTU21D;64295;44.772;39.872;2024-01-07T06:19:29;5.62;66.14
75683;HTU21D;64295;44.772;39.872;2024-01-07T06:21:55;5.65;66.15
75683;HTU21D;64295;44.772;39.872;2024-01-07T06:24:22;5.67;66.17
75683;HTU21D;64295;44.772;39.872;2024-01-07T06:26:48;5.65;66.22
75683;HTU21D;64295;44.772;39.872;2024-01-07T06:29:13;5.70;66.29
75683;HTU21D;64295;44.772;39.872;2024-01-07T06:31:43;5.76;66.24
75683;HTU21D;64295;44.772;39.872;2024-01-07T06:34:10;5.82;66.21
75683;HTU21D;64295;44.772;39.872;2024-01-07T06:36:39;5.90;66.07
75683;HTU21D;64295;44.772;39.872;2024-01-07T06:39:07;6.02;66.05
75683;HTU21D;64295;44.772;39.872;2024-01-07T06:41:34;6.21;65.74
75683;HTU21D;64295;44.772;39.872;2024-01-07T06:44:00;6.28;65.59
75683;HTU21D;64295;44.772;39.872;2024-01-07T06:46:27;6.33;65.65
75683;HTU21D;64295;44.772;39.872;2024-01-07T06:48:53;6.35;65.66
75683;HTU21D;64295;44.772;39.872;2024-01-07T06:51:19;6.39;65.70
75683;HTU21D;64295;44.772;39.872;2024-01-07T06:53:44;6.44;65.69
75683;HTU21D;64295;44.772;39.872;2024-01-07T06:56:10;6.53;65.68
75683;HTU21D;64295;44.772;39.872;2024-01-07T06:58:36;6.68;65.50
75683;HTU21D;64295;44.772;39.872;2024-01-07T07:01:02;6.85;65.33
75683;HTU21D;64295;44.772;39.872;2024-01-07T07:03:28;6.97;65.19
75683;HTU21D;64295;44.772;39.872;2024-01-07T07:05:54;7.23;64.98
75683;HTU21D;64295;44.772;39.872;2024-01-07T07:08:20;7.35;64.84
75683;HTU21D;64295;44.772;39.872;2024-01-07T07:10:46;7.48;64.73
75683;HTU21D;64295;44.772;39.872;2024-01-07T07:13:12;7.55;64.75
75683;HTU21D;64295;44.772;39.872;2024-01-07T07:15:38;7.64;64.79
75683;HTU21D;64295;44.772;39.872;2024-01-07T07:18:04;7.78;64.69
75683;HTU21D;64295;44.772;39.872;2024-01-07T07:20:30;7.92;64.47
75683;HTU21D;64295;44.772;39.872;2024-01-07T07:22:56;7.93;64.56
75683;HTU21D;64295;44.772;39.872;2024-01-07T07:25:22;8.08;64.53
75683;HTU21D;64295;44.772;39.872;2024-01-07T07:27:48;8.33;64.20
75683;HTU21D;64295;44.772;39.872;2024-01-07T07:30:14;8.56;63.85
75683;HTU21D;64295;44.772;39.872;2024-01-07T07:32:40;8.78;63.65
75683;HTU21D;64295;44.772;39.872;2024-01-07T07:35:09;9.01;63.46
75683;HTU21D;64295;44.772;39.872;2024-01-07T07:37:35;9.23;63.18
75683;HTU21D;64295;44.772;39.872;2024-01-07T07:40:02;9.54;62.81
75683;HTU21D;64295;44.772;39.872;2024-01-07T07:42:28;9.70;62.72
75683;HTU21D;64295;44.772;39.872;2024-01-07T07:44:54;9.92;62.58
75683;HTU21D;64295;44.772;39.872;2024-01-07T07:47:20;10.13;62.44
75683;HTU21D;64295;44.772;39.872;2024-01-07T07:49:46;10.39;62.24
75683;HTU21D;64295;44.772;39.872;2024-01-07T07:52:12;10.66;61.99
75683;HTU21D;64295;44.772;39.872;2024-01-07T07:55:00;10.95;61.83
75683;HTU21D;64295;44.772;39.872;2024-01-07T07:57:26;11.14;61.73
75683;HTU21D;64295;44.772;39.872;2024-01-07T07:59:52;11.39;61.56
75683;HTU21D;64295;44.772;39.872;2024-01-07T08:02:18;11.59;61.46
75683;HTU21D;64295;44.772;39.872;2024-01-07T08:04:44;11.83;61.33
75683;HTU21D;64295;44.772;39.872;2024-01-07T08:07:10;12.05;61.13
75683;HTU21D;64295;44.772;39.872;2024-01-07T08:09:36;12.21;61.15
75683;HTU21D;64295;44.772;39.872;2024-01-07T08:12:05;12.33;61.15
75683;HTU21D;64295;44.772;39.872;2024-01-07T08:14:32;12.43;61.29
75683;HTU21D;64295;44.772;39.872;2024-01-07T08:16:59;12.59;61.24
75683;HTU21D;64295;44.772;39.872;2024-01-07T08:19:25;12.81;61.05
75683;HTU21D;64295;44.772;39.872;2024-01-07T08:21:51;13.02;60.88
75683;HTU21D;64295;44.772;39.872;2024-01-07T08:24:18;13.29;60.73
75683;HTU21D;64295;44.772;39.872;2024-01-07T08:26:44;13.58;60.42
75683;HTU21D;64295;44.772;39.872;2024-01-07T08:29:10;13.66;60.47
75683;HTU21D;64295;44.772;39.872;2024-01-07T08:31:37;13.74;60.73
75683;HTU21D;64295;44.772;39.872;2024-01-07T08:34:03;13.86;60.64
75683;HTU21D;64295;44.772;39.872;2024-01-07T08:36:29;13.96;60.68
75683;HTU21D;64295;44.772;39.872;2024-01-07T08:38:55;14.05;60.73
75683;HTU21D;64295;44.772;39.872;2024-01-07T08:41:20;14.08;60.83
75683;HTU21D;64295;44.772;39.872;2024-01-07T08:43:46;14.20;60.79
75683;HTU21D;64295;44.772;39.872;2024-01-07T08:46:12;14.12;60.96
75683;HTU21D;64295;44.772;39.872;2024-01-07T08:48:39;14.09;61.16
75683;HTU21D;64295;44.772;39.872;2024-01-07T08:51:05;14.19;61.07
75683;HTU21D;64295;44.772;39.872;2024-01-07T08:53:32;14.15;61.20
75683;HTU21D;64295;44.772;39.872;2024-01-07T08:55:58;14.18;61.25
75683;HTU21D;64295;44.772;39.872;2024-01-07T08:58:24;14.00;61.52
75683;HTU21D;64295;44.772;39.872;2024-01-07T09:00:50;13.90;61.82
75683;HTU21D;64295;44.772;39.872;2024-01-07T09:03:16;13.94;61.78
75683;HTU21D;64295;44.772;39.872;2024-01-07T09:05:42;14.10;61.38
75683;HTU21D;64295;44.772;39.872;2024-01-07T09:08:07;14.11;61.38
75683;HTU21D;64295;44.772;39.872;2024-01-07T09:10:33;14.23;61.31
75683;HTU21D;64295;44.772;39.872;2024-01-07T09:12:59;14.33;61.09
75683;HTU21D;64295;44.772;39.872;2024-01-07T09:15:25;14.36;61.06
75683;HTU21D;64295;44.772;39.872;2024-01-07T09:17:51;14.38;61.07
75683;HTU21D;64295;44.772;39.872;2024-01-07T09:20:17;14.49;60.98
75683;HTU21D;64295;44.772;39.872;2024-01-07T09:22:43;14.58;60.76
75683;HTU21D;64295;44.772;39.872;2024-01-07T09:25:16;14.42;61.01
75683;HTU21D;64295;44.772;39.872;2024-01-07T09:27:42;14.34;61.21
75683;HTU21D;64295;44.772;39.872;2024-01-07T09:30:11;14.26;61.32
75683;HTU21D;64295;44.772;39.872;2024-01-07T09:32:41;14.14;61.43
75683;HTU21D;64295;44.772;39.872;2024-01-07T09:35:07;14.06;61.66
75683;HTU21D;64295;44.772;39.872;2024-01-07T09:37:34;14.17;61.47
75683;HTU21D;64295;44.772;39.872;2024-01-07T09:40:01;14.35;61.15
75683;HTU21D;64295;44.772;39.872;2024-01-07T09:42:27;14.49;60.91
75683;HTU21D;64295;44.772;39.872;2024-01-07T09:44:53;14.55;60.80
75683;HTU21D;64295;44.772;39.872;2024-01-07T09:47:19;14.59;60.80
75683;HTU21D;64295;44.772;39.872;2024-01-07T09:49:46;14.53;60.86
75683;HTU21D;64295;44.772;39.872;2024-01-07T09:52:12;14.45;61.10
75683;HTU21D;64295;44.772;39.872;2024-01-07T09:54:40;14.41;61.21
75683;HTU21D;64295;44.772;39.872;2024-01-07T09:57:08;14.59;61.02
75683;HTU21D;64295;44.772;39.872;2024-01-07T09:59:34;14.65;60.87
75683;HTU21D;64295;44.772;39.872;2024-01-07T10:02:02;14.64;60.98
75683;HTU21D;64295;44.772;39.872;2024-01-07T10:04:29;14.69;61.07
75683;HTU21D;64295;44.772;39.872;2024-01-07T10:06:56;14.98;60.63
75683;HTU21D;64295;44.772;39.872;2024-01-07T10:09:22;15.19;60.22
75683;HTU21D;64295;44.772;39.872;2024-01-07T10:11:52;15.29;60.05
75683;HTU21D;64295;44.772;39.872;2024-01-07T10:14:19;15.34;60.03
75683;HTU21D;64295;44.772;39.872;2024-01-07T10:16:48;15.41;59.80
75683;HTU21D;64295;44.772;39.872;2024-01-07T10:19:24;15.33;59.86
75683;HTU21D;64295;44.772;39.872;2024-01-07T10:22:00;15.51;59.64
75683;HTU21D;64295;44.772;39.872;2024-01-07T10:24:34;15.66;59.45
75683;HTU21D;64295;44.772;39.872;2024-01-07T10:27:01;15.67;59.50
75683;HTU21D;64295;44.772;39.872;2024-01-07T10:29:28;15.68;59.55
75683;HTU21D;64295;44.772;39.872;2024-01-07T10:31:58;15.61;59.62
75683;HTU21D;64295;44.772;39.872;2024-01-07T10:34:26;15.44;59.93
75683;HTU21D;64295;44.772;39.872;2024-01-07T10:36:57;15.31;60.21
75683;HTU21D;64295;44.772;39.872;2024-01-07T10:39:28;15.19;60.38
75683;HTU21D;64295;44.772;39.872;2024-01-07T10:41:57;15.04;60.60
75683;HTU21D;64295;44.772;39.872;2024-01-07T10:44:28;15.01;60.60
75683;HTU21D;64295;44.772;39.872;2024-01-07T10:46:56;14.94;60.60
75683;HTU21D;64295;44.772;39.872;2024-01-07T10:49:24;14.81;60.71
75683;HTU21D;64295;44.772;39.872;2024-01-07T10:52:07;14.70;60.70
75683;HTU21D;64295;44.772;39.872;2024-01-07T10:54:34;14.56;60.92
75683;HTU21D;64295;44.772;39.872;2024-01-07T10:57:17;14.48;60.95
75683;HTU21D;64295;44.772;39.872;2024-01-07T10:59:47;14.48;60.96
75683;HTU21D;64295;44.772;39.872;2024-01-07T11:02:14;14.52;60.74
75683;HTU21D;64295;44.772;39.872;2024-01-07T11:04:51;14.50;60.66
75683;HTU21D;64295;44.772;39.872;2024-01-07T11:07:29;14.41;60.64
75683;HTU21D;64295;44.772;39.872;2024-01-07T11:12:31;14.24;60.86
75683;HTU21D;64295;44.772;39.872;2024-01-07T11:14:57;14.22;60.78
75683;HTU21D;64295;44.772;39.872;2024-01-07T11:17:40;14.21;60.67
75683;HTU21D;64295;44.772;39.872;2024-01-07T11:20:19;14.21;60.57
75683;HTU21D;64295;44.772;39.872;2024-01-07T11:22:46;14.21;60.57
75683;HTU21D;64295;44.772;39.872;2024-01-07T11:25:32;14.24;60.41
75683;HTU21D;64295;44.772;39.872;2024-01-07T11:28:00;14.25;60.37
75683;HTU21D;64295;44.772;39.872;2024-01-07T11:30:27;14.22;60.31
75683;HTU21D;64295;44.772;39.872;2024-01-07T11:32:57;14.19;60.26
75683;HTU21D;64295;44.772;39.872;2024-01-07T11:35:59;14.14;60.24
75683;HTU21D;64295;44.772;39.872;2024-01-07T11:38:26;14.06;60.30
75683;HTU21D;64295;44.772;39.872;2024-01-07T11:40:52;13.97;60.38
75683;HTU21D;64295;44.772;39.872;2024-01-07T11:43:18;13.92;60.40
75683;HTU21D;64295;44.772;39.872;2024-01-07T11:45:45;13.84;60.40
75683;HTU21D;64295;44.772;39.872;2024-01-07T11:48:11;13.79;60.41
75683;HTU21D;64295;44.772;39.872;2024-01-07T11:50:37;13.80;60.31
75683;HTU21D;64295;44.772;39.872;2024-01-07T11:53:03;13.79;60.24
75683;HTU21D;64295;44.772;39.872;2024-01-07T11:55:29;13.78;60.17
75683;HTU21D;64295;44.772;39.872;2024-01-07T11:58:01;13.73;60.18
75683;HTU21D;64295;44.772;39.872;2024-01-07T12:00:30;13.67;60.20
75683;HTU21D;64295;44.772;39.872;2024-01-07T12:02:56;13.78;60.09
75683;HTU21D;64295;44.772;39.872;2024-01-07T12:05:22;13.79;59.93
75683;HTU21D;64295;44.772;39.872;2024-01-07T12:07:47;13.74;60.02
75683;HTU21D;64295;44.772;39.872;2024-01-07T12:10:14;13.71;60.04
75683;HTU21D;64295;44.772;39.872;2024-01-07T12:12:41;13.74;59.87
75683;HTU21D;64295;44.772;39.872;2024-01-07T12:15:08;13.66;59.98
75683;HTU21D;64295;44.772;39.872;2024-01-07T12:17:34;13.59;60.03
75683;HTU21D;64295;44.772;39.872;2024-01-07T12:20:00;13.50;60.11
75683;HTU21D;64295;44.772;39.872;2024-01-07T12:22:30;13.40;60.21
75683;HTU21D;64295;44.772;39.872;2024-01-07T12:25:03;13.33;60.25
75683;HTU21D;64295;44.772;39.872;2024-01-07T12:27:29;13.27;60.31
75683;HTU21D;64295;44.772;39.872;2024-01-07T12:29:59;13.21;60.29
75683;HTU21D;64295;44.772;39.872;2024-01-07T12:32:28;13.21;60.34
75683;HTU21D;64295;44.772;39.872;2024-01-07T12:34:57;13.23;60.15
75683;HTU21D;64295;44.772;39.872;2024-01-07T12:37:26;13.25;60.03
75683;HTU21D;64295;44.772;39.872;2024-01-07T12:39:53;13.25;59.96
75683;HTU21D;64295;44.772;39.872;2024-01-07T12:42:19;13.23;59.90
75683;HTU21D;64295;44.772;39.872;2024-01-07T12:44:50;13.25;59.83
75683;HTU21D;64295;44.772;39.872;2024-01-07T12:47:16;13.29;59.83
75683;HTU21D;64295;44.772;39.872;2024-01-07T12:49:42;13.30;59.77
75683;HTU21D;64295;44.772;39.872;2024-01-07T12:52:08;13.22;59.80
75683;HTU21D;64295;44.772;39.872;2024-01-07T12:54:35;13.16;59.84
75683;HTU21D;64295;44.772;39.872;2024-01-07T12:57:01;13.10;59.91
75683;HTU21D;64295;44.772;39.872;2024-01-07T12:59:27;13.04;59.95
75683;HTU21D;64295;44.772;39.872;2024-01-07T13:01:53;13.01;59.97
75683;HTU21D;64295;44.772;39.872;2024-01-07T13:04:19;12.97;59.98
75683;HTU21D;64295;44.772;39.872;2024-01-07T13:06:45;12.95;59.94
75683;HTU21D;64295;44.772;39.872;2024-01-07T13:09:11;12.97;59.90
75683;HTU21D;64295;44.772;39.872;2024-01-07T13:11:37;12.96;59.82
75683;HTU21D;64295;44.772;39.872;2024-01-07T13:14:03;12.96;59.81
75683;HTU21D;64295;44.772;39.872;2024-01-07T13:16:29;12.94;59.81
75683;HTU21D;64295;44.772;39.872;2024-01-07T13:18:55;12.91;59.86
75683;HTU21D;64295;44.772;39.872;2024-01-07T13:21:21;13.00;59.74
75683;HTU21D;64295;44.772;39.872;2024-01-07T13:23:47;13.06;59.65
75683;HTU21D;64295;44.772;39.872;2024-01-07T13:26:14;13.10;59.50
75683;HTU21D;64295;44.772;39.872;2024-01-07T13:28:40;13.08;59.55
75683;HTU21D;64295;44.772;39.872;2024-01-07T13:31:10;13.01;59.66
75683;HTU21D;64295;44.772;39.872;2024-01-07T13:33:38;12.91;59.81
75683;HTU21D;64295;44.772;39.872;2024-01-07T13:36:05;12.85;59.93
75683;HTU21D;64295;44.772;39.872;2024-01-07T13:38:35;12.78;60.01
75683;HTU21D;64295;44.772;39.872;2024-01-07T13:41:04;12.71;60.09
75683;HTU21D;64295;44.772;39.872;2024-01-07T13:43:30;12.64;60.18
75683;HTU21D;64295;44.772;39.872;2024-01-07T13:45:56;12.57;60.26
75683;HTU21D;64295;44.772;39.872;2024-01-07T13:48:22;12.50;60.33
75683;HTU21D;64295;44.772;39.872;2024-01-07T13:50:48;12.44;60.38
75683;HTU21D;64295;44.772;39.872;2024-01-07T13:53:15;12.36;60.46
75683;HTU21D;64295;44.772;39.872;2024-01-07T13:55:41;12.29;60.57
75683;HTU21D;64295;44.772;39.872;2024-01-07T13:58:07;12.20;60.61
75683;HTU21D;64295;44.772;39.872;2024-01-07T14:00:33;12.26;60.52
75683;HTU21D;64295;44.772;39.872;2024-01-07T14:02:59;12.25;60.44
75683;HTU21D;64295;44.772;39.872;2024-01-07T14:05:24;12.26;60.40
75683;HTU21D;64295;44.772;39.872;2024-01-07T14:07:50;12.27;60.34
75683;HTU21D;64295;44.772;39.872;2024-01-07T14:10:20;12.27;60.28
75683;HTU21D;64295;44.772;39.872;2024-01-07T14:12:47;12.23;60.31
75683;HTU21D;64295;44.772;39.872;2024-01-07T14:15:13;12.18;60.38
75683;HTU21D;64295;44.772;39.872;2024-01-07T14:17:39;12.20;60.34
75683;HTU21D;64295;44.772;39.872;2024-01-07T14:20:08;12.22;60.29
75683;HTU21D;64295;44.772;39.872;2024-01-07T14:22:36;12.22;60.28
75683;HTU21D;64295;44.772;39.872;2024-01-07T14:25:02;12.20;60.27
75683;HTU21D;64295;44.772;39.872;2024-01-07T14:27:29;12.19;60.27
75683;HTU21D;64295;44.772;39.872;2024-01-07T14:29:55;12.14;60.29
75683;HTU21D;64295;44.772;39.872;2024-01-07T14:32:22;12.01;60.44
75683;HTU21D;64295;44.772;39.872;2024-01-07T14:34:49;11.92;60.54
75683;HTU21D;64295;44.772;39.872;2024-01-07T14:37:16;11.83;60.67
75683;HTU21D;64295;44.772;39.872;2024-01-07T14:39:42;11.71;60.80
75683;HTU21D;64295;44.772;39.872;2024-01-07T14:42:08;11.66;60.85
75683;HTU21D;64295;44.772;39.872;2024-01-07T14:44:34;11.59;60.89
75683;HTU21D;64295;44.772;39.872;2024-01-07T14:47:00;11.52;60.93
75683;HTU21D;64295;44.772;39.872;2024-01-07T14:49:26;11.44;60.99
75683;HTU21D;64295;44.772;39.872;2024-01-07T14:51:52;11.48;60.95
75683;HTU21D;64295;44.772;39.872;2024-01-07T14:54:18;11.52;60.80
75683;HTU21D;64295;44.772;39.872;2024-01-07T14:56:44;11.41;60.93
75683;HTU21D;64295;44.772;39.872;2024-01-07T14:59:10;11.29;61.15
75683;HTU21D;64295;44.772;39.872;2024-01-07T15:01:36;11.26;61.18
75683;HTU21D;64295;44.772;39.872;2024-01-07T15:04:02;11.14;61.28
75683;HTU21D;64295;44.772;39.872;2024-01-07T15:06:28;11.01;61.44
75683;HTU21D;64295;44.772;39.872;2024-01-07T15:08:54;10.86;61.63
75683;HTU21D;64295;44.772;39.872;2024-01-07T15:11:20;10.74;61.78